Terminal Aerodrome Forecast
Issued by NWS

Home | Current Version | Previous Version | Text Only | Print | Product List | Glossary On
Versions: 1 2 3 4 5 6 7 8 9 10 11 12 13 14
000
FTUS43 KGRB 052330
TAFMTW
TAF
KMTW 052330Z 0600/0624 16008KT P6SM FEW050 BKN250
     FM060600 18005KT 5SM BR FEW140 SCT250 WS015/22030KT
     FM061400 18013G20KT P6SM SCT040 BKN140 PROB30 0622/0624 4SM
      TSRA BR BKN040CB=

USA.gov is the U.S. government's official web portal to all federal, state and local government web resources and services.